createdAt,value
2018-11-03T00:01:37.235Z,9.63
2018-11-03T00:04:06.081Z,11.33
2018-11-03T00:06:34.987Z,11.90
2018-11-03T00:09:05.750Z,11.63
2018-11-03T00:11:34.670Z,10.77
2018-11-03T00:14:03.495Z,11.03
2018-11-03T00:16:32.388Z,11.27
2018-11-03T00:19:01.360Z,10.53
2018-11-03T00:21:30.180Z,11.17
2018-11-03T00:23:59.220Z,10.67
2018-11-03T00:26:27.995Z,11.10
2018-11-03T00:28:56.823Z,10.70
2018-11-03T00:31:25.644Z,10.60
2018-11-03T00:33:54.478Z,10.90
2018-11-03T00:36:23.333Z,12.67
2018-11-03T00:38:52.206Z,10.63
2018-11-03T00:41:21.073Z,10.50
2018-11-03T00:43:49.899Z,10.33
2018-11-03T00:46:18.957Z,10.27
2018-11-03T00:48:47.748Z,9.73
2018-11-03T00:51:16.587Z,10.33
2018-11-03T00:53:46.348Z,10.90
2018-11-03T00:56:15.155Z,11.30
2018-11-03T00:58:44.017Z,10.77
2018-11-03T01:01:12.854Z,11.43
2018-11-03T01:03:41.762Z,12.00
2018-11-03T01:06:10.583Z,11.13
2018-11-03T01:08:39.620Z,10.97
2018-11-03T01:11:08.380Z,10.60
2018-11-03T01:13:37.285Z,11.07
2018-11-03T01:16:06.383Z,10.90
2018-11-03T01:18:35.272Z,11.10
2018-11-03T01:21:04.524Z,10.33
2018-11-03T01:23:33.308Z,10.13
2018-11-03T01:26:03.384Z,10.87
2018-11-03T01:28:39.432Z,10.17
2018-11-03T01:31:22.477Z,10.17
2018-11-03T01:33:52.420Z,10.73
2018-11-03T01:36:21.316Z,9.63
2018-11-03T01:38:50.178Z,10.73
2018-11-03T01:41:19.004Z,11.30
2018-11-03T01:43:47.896Z,9.70
2018-11-03T01:46:16.812Z,10.77
2018-11-03T01:48:45.912Z,11.07
2018-11-03T01:51:14.948Z,11.00
2018-11-03T01:53:43.908Z,10.90
2018-11-03T01:56:12.680Z,11.37
2018-11-03T01:58:41.548Z,9.97
2018-11-03T02:01:10.902Z,10.70
2018-11-03T02:03:39.826Z,10.53
2018-11-03T02:06:08.622Z,9.77
2018-11-03T02:08:37.928Z,10.97
2018-11-03T02:11:06.816Z,10.70
2018-11-03T02:13:35.776Z,10.13
2018-11-03T02:16:04.835Z,10.30
2018-11-03T02:18:33.703Z,10.33
2018-11-03T02:21:02.543Z,11.07
2018-11-03T02:23:31.423Z,11.20
2018-11-03T02:26:00.248Z,10.83
2018-11-03T02:28:29.043Z,10.67
2018-11-03T02:30:57.878Z,11.23
2018-11-03T02:33:27.044Z,10.47
2018-11-03T02:35:56.003Z,10.80
2018-11-03T02:38:24.787Z,10.30
2018-11-03T02:40:53.565Z,10.43
2018-11-03T02:43:22.372Z,9.87
2018-11-03T02:45:51.214Z,10.43
2018-11-03T02:48:20.176Z,10.87
2018-11-03T02:50:49.208Z,10.30
2018-11-03T02:53:18.028Z,11.00
2018-11-03T02:55:46.812Z,10.20
2018-11-03T02:58:15.746Z,10.30
2018-11-03T03:00:45.520Z,10.50
2018-11-03T03:03:14.395Z,11.33
2018-11-03T03:05:43.210Z,12.47
2018-11-03T03:08:12.057Z,13.00
2018-11-03T03:10:40.871Z,12.67
2018-11-03T03:13:09.699Z,13.03
2018-11-03T03:15:38.648Z,13.33
2018-11-03T03:18:07.513Z,13.70
2018-11-03T03:20:36.439Z,14.20
2018-11-03T03:23:05.312Z,15.87
2018-11-03T03:25:34.217Z,15.83
2018-11-03T03:28:03.097Z,16.83
2018-11-03T03:30:31.984Z,16.73
2018-11-03T03:33:00.892Z,16.53
2018-11-03T03:35:29.671Z,17.60
2018-11-03T03:37:58.556Z,17.97
2018-11-03T03:40:27.540Z,16.70
2018-11-03T03:42:56.396Z,17.23
2018-11-03T03:45:25.258Z,16.23
2018-11-03T03:47:54.080Z,16.07
2018-11-03T03:50:22.964Z,16.47
2018-11-03T03:52:51.924Z,16.23
2018-11-03T03:55:20.826Z,17.10
2018-11-03T03:57:49.659Z,16.47
2018-11-03T04:00:18.470Z,17.23
2018-11-03T04:02:47.418Z,17.50
2018-11-03T04:05:16.249Z,17.13
2018-11-03T04:07:45.206Z,17.27
2018-11-03T04:10:14.012Z,17.77
2018-11-03T04:12:42.872Z,17.43
2018-11-03T04:15:11.739Z,18.27
2018-11-03T04:17:40.591Z,17.57
2018-11-03T04:20:09.625Z,19.67
2018-11-03T04:22:38.454Z,18.90
2018-11-03T04:25:07.299Z,19.30
2018-11-03T04:27:36.137Z,19.13
2018-11-03T04:30:07.383Z,19.53
2018-11-03T04:32:36.575Z,19.63
2018-11-03T04:35:05.416Z,18.97
2018-11-03T04:37:34.206Z,18.77
2018-11-03T04:40:03.372Z,18.80
2018-11-03T04:42:32.212Z,20.73
2018-11-03T04:45:02.022Z,20.80
2018-11-03T04:47:30.912Z,21.03
2018-11-03T04:49:59.777Z,20.87
2018-11-03T04:52:28.583Z,20.70
2018-11-03T04:54:57.520Z,20.80
2018-11-03T04:57:26.416Z,21.47
2018-11-03T04:59:56.969Z,20.87
2018-11-03T05:02:25.791Z,21.10
2018-11-03T05:04:54.597Z,20.30
2018-11-03T05:07:23.416Z,20.20
2018-11-03T05:09:52.269Z,21.23
2018-11-03T05:12:21.080Z,21.13
2018-11-03T05:14:50.094Z,21.57
2018-11-03T05:17:25.448Z,21.23
2018-11-03T05:19:54.272Z,22.30
2018-11-03T05:22:23.165Z,21.77
2018-11-03T05:24:52.011Z,23.17
2018-11-03T05:27:20.935Z,22.60
2018-11-03T05:29:49.960Z,22.63
2018-11-03T05:32:18.760Z,22.83
2018-11-03T05:34:47.627Z,23.77
2018-11-03T05:37:16.507Z,23.10
2018-11-03T05:39:45.359Z,22.40
2018-11-03T05:42:14.169Z,24.00
2018-11-03T05:44:42.968Z,24.43
2018-11-03T05:47:11.852Z,23.17
2018-11-03T05:49:40.755Z,24.63
2018-11-03T05:52:09.609Z,24.53
2018-11-03T05:54:38.420Z,23.97
2018-11-03T05:57:07.308Z,24.80
2018-11-03T05:59:36.181Z,24.63
2018-11-03T06:02:04.997Z,24.73
2018-11-03T06:04:33.832Z,24.70
2018-11-03T06:07:02.639Z,22.57
2018-11-03T06:09:31.520Z,24.00
2018-11-03T06:12:00.356Z,23.33
2018-11-03T06:14:29.139Z,24.80
2018-11-03T06:16:57.911Z,23.07
2018-11-03T06:19:26.714Z,23.63
2018-11-03T06:21:55.467Z,22.93
2018-11-03T06:24:24.580Z,23.20
2018-11-03T06:26:53.352Z,22.93
2018-11-03T06:29:22.275Z,22.57
2018-11-03T06:31:51.065Z,24.03
2018-11-03T06:34:19.855Z,23.87
2018-11-03T06:36:48.642Z,24.00
2018-11-03T06:39:17.426Z,24.40
2018-11-03T06:41:46.297Z,26.40
2018-11-03T06:44:15.092Z,24.97
2018-11-03T06:46:43.963Z,25.57
2018-11-03T06:49:18.088Z,25.50
2018-11-03T06:51:46.858Z,25.17
2018-11-03T06:54:15.661Z,25.47
2018-11-03T06:56:44.425Z,26.47
2018-11-03T06:59:13.296Z,24.83
2018-11-03T07:01:47.654Z,26.00
2018-11-03T07:04:16.442Z,27.87
2018-11-03T07:06:45.224Z,34.90
2018-11-03T07:09:14.221Z,27.17
2018-11-03T07:11:43.020Z,29.23
2018-11-03T07:14:11.819Z,41.77
2018-11-03T07:16:40.551Z,28.53
2018-11-03T07:19:09.363Z,26.77
2018-11-03T07:21:38.217Z,25.60
2018-11-03T07:24:06.924Z,26.37
2018-11-03T07:26:35.675Z,25.73
2018-11-03T07:29:04.617Z,26.13
2018-11-03T07:31:33.414Z,25.90
2018-11-03T07:34:02.195Z,25.87
2018-11-03T07:36:30.959Z,25.27
2018-11-03T07:38:59.731Z,26.93
2018-11-03T07:41:28.577Z,28.93
2018-11-03T07:43:57.404Z,27.43
2018-11-03T07:46:26.210Z,30.30
2018-11-03T07:48:55.102Z,30.47
2018-11-03T07:51:23.793Z,29.23
2018-11-03T07:53:52.744Z,29.10
2018-11-03T07:56:21.520Z,26.60
2018-11-03T07:58:50.304Z,25.63
2018-11-03T08:01:19.126Z,25.80
2018-11-03T08:03:47.895Z,25.10
2018-11-03T08:06:16.800Z,27.20
2018-11-03T08:08:45.631Z,28.00
2018-11-03T08:11:14.360Z,31.47
2018-11-03T08:13:43.120Z,26.20
2018-11-03T08:16:11.918Z,24.87
2018-11-03T08:18:40.712Z,25.50
2018-11-03T08:21:09.497Z,24.97
2018-11-03T08:23:38.351Z,24.80
2018-11-03T08:26:07.091Z,26.73
2018-11-03T08:28:35.846Z,27.57
2018-11-03T08:31:04.652Z,27.57
2018-11-03T08:33:33.456Z,24.53
2018-11-03T08:36:02.287Z,27.10
2018-11-03T08:38:31.152Z,29.67
2018-11-03T08:40:59.932Z,25.57
2018-11-03T08:43:28.727Z,24.73
2018-11-03T08:45:57.530Z,22.50
2018-11-03T08:48:26.473Z,24.07
2018-11-03T08:50:55.219Z,24.13
2018-11-03T08:53:24.023Z,23.57
2018-11-03T08:55:52.888Z,25.87
2018-11-03T08:58:21.643Z,25.23
2018-11-03T09:00:50.436Z,25.17
2018-11-03T09:03:19.211Z,23.23
2018-11-03T09:05:47.986Z,23.90
2018-11-03T09:08:16.799Z,23.63
2018-11-03T09:10:45.560Z,22.60
2018-11-03T09:13:14.340Z,26.30
2018-11-03T09:15:43.120Z,29.23
2018-11-03T09:18:11.889Z,23.57
2018-11-03T09:20:40.675Z,23.53
2018-11-03T09:23:09.448Z,23.43
2018-11-03T09:25:38.237Z,23.20
2018-11-03T09:28:07.080Z,23.47
2018-11-03T09:30:35.884Z,23.13
2018-11-03T09:33:04.920Z,23.87
2018-11-03T09:35:33.700Z,25.83
2018-11-03T09:38:02.483Z,22.10
2018-11-03T09:40:31.269Z,23.77
2018-11-03T09:43:00.270Z,22.63
2018-11-03T09:45:28.917Z,22.57
2018-11-03T09:47:57.687Z,24.33
2018-11-03T09:50:26.545Z,23.93
2018-11-03T09:52:55.464Z,26.00
2018-11-03T09:55:24.300Z,23.83
2018-11-03T09:57:53.084Z,25.40
2018-11-03T10:00:22.287Z,24.10
2018-11-03T10:02:51.058Z,22.10
2018-11-03T10:05:19.880Z,23.77
2018-11-03T10:07:48.615Z,20.47
2018-11-03T10:10:18.557Z,22.10
2018-11-03T10:12:47.315Z,22.30
2018-11-03T10:15:17.464Z,21.67
2018-11-03T10:17:46.624Z,21.93
2018-11-03T10:20:15.419Z,23.33
2018-11-03T10:22:44.197Z,23.10
2018-11-03T10:25:15.815Z,21.87
2018-11-03T10:27:45.134Z,22.70
2018-11-03T10:30:14.908Z,20.73
2018-11-03T10:32:44.000Z,22.37
2018-11-03T10:35:13.294Z,21.77
2018-11-03T10:37:42.190Z,22.63
2018-11-03T10:40:12.842Z,21.83
2018-11-03T10:42:41.864Z,22.10
2018-11-03T10:45:12.092Z,22.50
2018-11-03T10:47:41.060Z,20.93
2018-11-03T10:50:11.496Z,22.43
2018-11-03T10:52:41.143Z,20.63
2018-11-03T10:55:11.169Z,19.80
2018-11-03T10:57:39.996Z,20.73
2018-11-03T11:00:12.711Z,22.83
2018-11-03T11:02:46.957Z,21.93
2018-11-03T11:05:21.156Z,22.27
2018-11-03T11:07:55.135Z,20.53
2018-11-03T11:10:29.236Z,21.37
2018-11-03T11:13:01.793Z,21.00
2018-11-03T11:15:30.620Z,20.00
2018-11-03T11:17:59.416Z,20.00
2018-11-03T11:20:28.220Z,19.97
2018-11-03T11:22:57.061Z,21.53
2018-11-03T11:25:25.919Z,22.33
2018-11-03T11:27:54.884Z,21.97
2018-11-03T11:30:23.688Z,23.23
2018-11-03T11:32:52.525Z,22.20
2018-11-03T11:35:21.253Z,22.50
2018-11-03T11:37:50.063Z,22.27
2018-11-03T11:40:18.875Z,22.70
2018-11-03T11:42:47.735Z,21.87
2018-11-03T11:45:16.585Z,21.40
2018-11-03T11:47:45.376Z,18.70
2018-11-03T11:50:14.185Z,18.57
2018-11-03T11:52:43.020Z,17.83
2018-11-03T11:55:11.796Z,18.47
2018-11-03T11:57:41.444Z,18.37
2018-11-03T12:00:10.250Z,18.53
2018-11-03T12:02:39.045Z,19.10
2018-11-03T12:05:07.876Z,18.03
2018-11-03T12:07:36.656Z,17.33
2018-11-03T12:10:05.626Z,18.27
2018-11-03T12:12:34.304Z,18.67
2018-11-03T12:15:03.127Z,18.00
2018-11-03T12:17:31.904Z,17.50
2018-11-03T12:20:00.684Z,18.23
2018-11-03T12:22:29.540Z,18.10
2018-11-03T12:24:58.447Z,18.57
2018-11-03T12:27:27.337Z,19.50
2018-11-03T12:29:56.404Z,19.07
2018-11-03T12:32:25.271Z,18.40
2018-11-03T12:34:54.051Z,18.27
2018-11-03T12:37:22.918Z,18.17
2018-11-03T12:39:51.699Z,18.17
2018-11-03T12:42:20.527Z,17.97
2018-11-03T12:44:49.910Z,18.27
2018-11-03T12:50:01.864Z,17.77
2018-11-03T12:52:31.501Z,17.40
2018-11-03T12:55:01.513Z,16.97
2018-11-03T12:57:30.551Z,17.17
2018-11-03T12:59:59.459Z,17.50
2018-11-03T13:02:28.416Z,16.47
2018-11-03T13:04:57.567Z,16.30
2018-11-03T13:07:26.420Z,16.63
2018-11-03T13:09:55.707Z,15.67
2018-11-03T13:12:24.604Z,15.60
2018-11-03T13:14:53.595Z,15.30
2018-11-03T13:17:22.606Z,15.33
2018-11-03T13:19:51.617Z,15.80
2018-11-03T13:22:20.576Z,15.57
2018-11-03T13:24:49.612Z,15.27
2018-11-03T13:27:18.757Z,14.90
2018-11-03T13:29:47.700Z,15.37
2018-11-03T13:32:16.684Z,14.90
2018-11-03T13:34:45.609Z,14.90
2018-11-03T13:37:14.598Z,14.70
2018-11-03T13:39:43.438Z,14.80
2018-11-03T13:42:12.441Z,15.00
2018-11-03T13:44:44.030Z,16.67
2018-11-03T13:47:13.036Z,16.97
2018-11-03T13:49:42.844Z,16.30
2018-11-03T13:52:11.733Z,16.57
2018-11-03T13:54:40.602Z,16.77
2018-11-03T13:57:09.627Z,15.80
2018-11-03T13:59:38.420Z,16.60
2018-11-03T14:02:07.359Z,15.70
2018-11-03T14:04:36.231Z,16.40
2018-11-03T14:07:05.400Z,15.00
2018-11-03T14:09:34.293Z,14.83
2018-11-03T14:12:03.226Z,17.37
2018-11-03T14:14:32.368Z,17.00
2018-11-03T14:17:01.385Z,14.77
2018-11-03T14:19:30.252Z,15.20
2018-11-03T14:21:59.235Z,15.07
2018-11-03T14:24:28.657Z,15.40
2018-11-03T14:26:57.601Z,14.57
2018-11-03T14:29:26.560Z,14.90
2018-11-03T14:31:55.625Z,14.87
2018-11-03T14:34:24.593Z,15.07
2018-11-03T14:36:53.524Z,16.70
2018-11-03T14:39:22.524Z,14.37
2018-11-03T14:41:51.482Z,14.43
2018-11-03T14:44:20.447Z,15.60
2018-11-03T14:46:49.413Z,14.63
2018-11-03T14:49:18.265Z,15.37
2018-11-03T14:51:47.277Z,15.33
2018-11-03T14:54:16.064Z,14.53
2018-11-03T14:56:44.877Z,14.00
2018-11-03T14:59:13.805Z,13.43
2018-11-03T15:01:42.656Z,14.13
2018-11-03T15:04:11.432Z,14.40
2018-11-03T15:06:40.259Z,14.03
2018-11-03T15:09:09.158Z,13.87
2018-11-03T15:11:38.189Z,14.43
2018-11-03T15:14:08.436Z,14.03
2018-11-03T15:16:37.335Z,14.00
2018-11-03T15:19:06.157Z,14.47
2018-11-03T15:21:35.012Z,16.03
2018-11-03T15:24:03.955Z,17.63
2018-11-03T15:26:32.764Z,17.83
2018-11-03T15:29:01.552Z,15.83
2018-11-03T15:31:30.371Z,15.93
2018-11-03T15:33:59.189Z,14.43
2018-11-03T15:36:27.998Z,15.57
2018-11-03T15:38:56.823Z,15.17
2018-11-03T15:41:25.771Z,15.33
2018-11-03T15:43:54.472Z,14.77
2018-11-03T15:46:23.281Z,14.13
2018-11-03T15:48:52.084Z,13.43
2018-11-03T15:51:21.121Z,14.07
2018-11-03T15:53:49.932Z,14.43
2018-11-03T15:56:18.768Z,14.63
2018-11-03T15:58:47.552Z,13.97
2018-11-03T16:01:16.491Z,13.60
2018-11-03T16:03:45.275Z,14.47
2018-11-03T16:06:14.131Z,13.67
2018-11-03T16:08:43.009Z,14.93
2018-11-03T16:11:11.820Z,15.07
2018-11-03T16:13:40.616Z,21.07
2018-11-03T16:16:09.549Z,16.73
2018-11-03T16:18:38.432Z,15.17
2018-11-03T16:21:07.421Z,15.20
2018-11-03T16:23:36.217Z,14.70
2018-11-03T16:26:05.154Z,16.93
2018-11-03T16:28:34.026Z,15.97
2018-11-03T16:31:03.113Z,14.57
2018-11-03T16:33:31.883Z,17.43
2018-11-03T16:36:00.710Z,16.90
2018-11-03T16:38:29.562Z,19.73
2018-11-03T16:40:58.304Z,17.73
2018-11-03T16:43:27.093Z,16.90
2018-11-03T16:45:55.884Z,16.60
2018-11-03T16:48:24.664Z,16.13
2018-11-03T16:50:53.463Z,18.43
2018-11-03T16:53:22.252Z,16.10
2018-11-03T16:55:51.094Z,17.10
2018-11-03T16:58:19.915Z,16.10
2018-11-03T17:00:48.766Z,16.50
2018-11-03T17:03:17.556Z,15.70
2018-11-03T17:05:46.343Z,16.57
2018-11-03T17:08:15.111Z,17.43
2018-11-03T17:10:43.911Z,16.93
2018-11-03T17:13:12.834Z,17.33
2018-11-03T17:15:45.929Z,19.67
2018-11-03T17:18:14.704Z,18.50
2018-11-03T17:20:43.728Z,22.70
2018-11-03T17:23:12.633Z,25.10
2018-11-03T17:25:41.394Z,18.93
2018-11-03T17:28:10.164Z,21.40
2018-11-03T17:30:38.968Z,27.00
2018-11-03T17:33:07.859Z,19.90
2018-11-03T17:35:36.625Z,21.67
2018-11-03T17:38:05.660Z,19.17
2018-11-03T17:40:34.423Z,18.30
2018-11-03T17:43:03.235Z,17.57
2018-11-03T17:45:32.185Z,17.47
2018-11-03T17:48:00.959Z,19.90
2018-11-03T17:50:29.776Z,20.17
2018-11-03T17:52:58.551Z,18.57
2018-11-03T17:55:27.355Z,18.77
2018-11-03T17:57:56.122Z,18.40
2018-11-03T18:00:25.835Z,19.20
2018-11-03T18:02:54.517Z,18.57
2018-11-03T18:05:23.652Z,19.00
2018-11-03T18:07:52.465Z,19.17
2018-11-03T18:10:21.907Z,18.67
2018-11-03T18:12:50.696Z,18.27
2018-11-03T18:15:19.791Z,18.53
2018-11-03T18:17:48.613Z,21.00
2018-11-03T18:20:17.400Z,18.77
2018-11-03T18:22:46.271Z,18.97
2018-11-03T18:25:15.068Z,20.07
2018-11-03T18:27:43.856Z,22.23
2018-11-03T18:30:13.433Z,20.23
2018-11-03T18:32:42.476Z,19.77
2018-11-03T18:35:11.606Z,19.63
2018-11-03T18:37:40.468Z,19.37
2018-11-03T18:40:09.630Z,19.80
2018-11-03T18:42:38.415Z,24.27
2018-11-03T18:45:07.678Z,21.50
2018-11-03T18:47:36.463Z,19.43
2018-11-03T18:50:08.413Z,18.83
2018-11-03T18:52:37.252Z,19.57
2018-11-03T18:55:06.803Z,18.73
2018-11-03T18:57:35.595Z,19.83
2018-11-03T19:00:04.736Z,21.00
2018-11-03T19:02:33.711Z,20.80
2018-11-03T19:05:02.568Z,19.53
2018-11-03T19:07:31.339Z,21.57
2018-11-03T19:10:00.120Z,19.37
2018-11-03T19:12:28.927Z,20.70
2018-11-03T19:14:57.764Z,19.53
2018-11-03T19:17:26.558Z,20.80
2018-11-03T19:19:55.319Z,23.10
2018-11-03T19:22:24.111Z,35.33
2018-11-03T19:24:52.893Z,27.93
2018-11-03T19:27:21.713Z,24.10
2018-11-03T19:29:50.561Z,21.17
2018-11-03T19:32:19.314Z,20.13
2018-11-03T19:34:48.101Z,20.57
2018-11-03T19:37:16.904Z,21.93
2018-11-03T19:39:45.690Z,23.57
2018-11-03T19:42:14.536Z,18.80
2018-11-03T19:44:43.336Z,16.87
2018-11-03T19:47:12.163Z,23.97
2018-11-03T19:49:40.987Z,16.30
2018-11-03T19:52:09.768Z,15.97
2018-11-03T19:54:38.556Z,16.47
2018-11-03T19:57:07.416Z,16.40
2018-11-03T19:59:36.268Z,25.30
2018-11-03T20:02:05.084Z,22.17
2018-11-03T20:04:33.949Z,17.97
2018-11-03T20:07:02.756Z,25.73
2018-11-03T20:09:31.596Z,37.87
2018-11-03T20:12:00.517Z,27.33
2018-11-03T20:14:29.359Z,24.03
2018-11-03T20:16:58.243Z,19.13
2018-11-03T20:19:27.051Z,26.47
2018-11-03T20:21:55.856Z,20.33
2018-11-03T20:24:24.658Z,22.20
2018-11-03T20:26:53.497Z,22.63
2018-11-03T20:29:22.263Z,43.43
2018-11-03T20:31:51.116Z,26.10
2018-11-03T20:34:19.927Z,19.50
2018-11-03T20:36:48.758Z,22.23
2018-11-03T20:39:17.555Z,17.97
2018-11-03T20:41:46.424Z,17.90
2018-11-03T20:44:15.152Z,17.50
2018-11-03T20:46:44.055Z,17.40
2018-11-03T20:49:12.847Z,18.13
2018-11-03T20:51:41.759Z,17.17
2018-11-03T20:54:10.544Z,17.57
2018-11-03T20:56:39.335Z,19.83
2018-11-03T20:59:08.579Z,23.37
2018-11-03T21:01:37.396Z,20.03
2018-11-03T21:04:06.168Z,18.57
2018-11-03T21:06:34.956Z,20.20
2018-11-03T21:09:04.659Z,20.43
2018-11-03T21:11:33.488Z,20.10
2018-11-03T21:14:02.312Z,19.77
2018-11-03T21:16:31.209Z,20.30
2018-11-03T21:18:59.919Z,20.00
2018-11-03T21:21:28.731Z,20.70
2018-11-03T21:23:57.589Z,20.27
2018-11-03T21:26:26.584Z,20.30
2018-11-03T21:28:55.366Z,21.17
2018-11-03T21:31:24.178Z,20.40
2018-11-03T21:33:52.992Z,19.80
2018-11-03T21:36:21.881Z,20.43
2018-11-03T21:38:50.824Z,20.50
2018-11-03T21:41:19.578Z,18.67
2018-11-03T21:43:49.114Z,18.83
2018-11-03T21:46:18.073Z,20.77
2018-11-03T21:48:46.827Z,20.80
2018-11-03T21:51:15.710Z,20.10
2018-11-03T21:53:44.648Z,20.87
2018-11-03T21:56:13.716Z,21.00
2018-11-03T21:58:42.621Z,22.50
2018-11-03T22:01:11.416Z,23.50
2018-11-03T22:03:40.304Z,20.97
2018-11-03T22:06:09.169Z,22.53
2018-11-03T22:08:37.988Z,18.93
2018-11-03T22:11:06.878Z,18.80
2018-11-03T22:13:35.671Z,19.60
2018-11-03T22:16:04.571Z,19.93
2018-11-03T22:18:33.470Z,19.73
2018-11-03T22:21:02.336Z,19.17
2018-11-03T22:23:31.130Z,19.50
2018-11-03T22:26:00.038Z,21.67
2018-11-03T22:28:29.072Z,21.00
2018-11-03T22:30:57.941Z,22.47
2018-11-03T22:33:26.863Z,24.47
2018-11-03T22:35:55.668Z,24.10
2018-11-03T22:38:24.463Z,23.40
2018-11-03T22:40:53.779Z,25.20
2018-11-03T22:43:22.730Z,23.00
2018-11-03T22:45:51.536Z,23.93
2018-11-03T22:48:20.381Z,25.40
2018-11-03T22:50:49.231Z,26.00
2018-11-03T22:53:18.171Z,26.67
2018-11-03T22:55:47.053Z,27.47
2018-11-03T22:58:15.899Z,27.27
2018-11-03T23:00:50.259Z,27.50
2018-11-03T23:03:19.165Z,27.73
2018-11-03T23:05:48.099Z,27.60
2018-11-03T23:08:16.969Z,25.83
2018-11-03T23:10:45.827Z,26.50
2018-11-03T23:13:14.863Z,27.73
2018-11-03T23:15:43.707Z,26.83
2018-11-03T23:18:12.794Z,27.03
2018-11-03T23:20:41.600Z,26.33
2018-11-03T23:23:10.656Z,26.90
2018-11-03T23:25:39.507Z,27.13
2018-11-03T23:28:08.363Z,26.07
2018-11-03T23:30:37.253Z,26.30
2018-11-03T23:33:06.331Z,25.80
2018-11-03T23:35:35.271Z,26.77
2018-11-03T23:38:04.196Z,26.87
2018-11-03T23:40:33.010Z,27.63
2018-11-03T23:43:01.847Z,28.83
2018-11-03T23:45:30.808Z,29.53
2018-11-03T23:47:59.723Z,27.70
2018-11-03T23:50:28.696Z,28.27
2018-11-03T23:52:57.579Z,28.67
2018-11-03T23:55:26.412Z,26.77
2018-11-03T23:57:55.324Z,27.90
